Flight Track Log - Related Links

Times and Time Zones

All times are in EDT time to prevent confusion due to time zone crossing. See the DAL1034 flight status page for this flight to view local times or setup timezone preferences in your user account.

Time Position Orientation Groundspeed Altitude Reporting Facility
EDT Latitude Longitude Course Direction KTS MPH feet Rate Location/Type
Wed 03:30:13 PM 33.6333 -84.4833 164° South 183 211 2,400  Level Atlanta TRACON
Wed 03:31:12 PM 33.6333 -84.5667 270° West 254 292 3,800 1,947 Climbing Atlanta TRACON
Wed 03:32:00 PM 33.3681 -84.2628 168° South  Level FlightAware Approximate
Wed 03:32:07 PM 33.6333 -84.6333 270° West 272 313 6,100  Level Atlanta TRACON
Wed 03:33:00 PM 33.2486 -84.2329 168° South  Level FlightAware Approximate
Wed 03:33:13 PM 33.5667 -84.7000 220° Southwest 299 344 8,900  Level Atlanta TRACON
Wed 03:34:00 PM 33.1291 -84.2030 168° South  Level FlightAware Approximate
Wed 03:34:07 PM 33.4833 -84.6833 171° South 314 361 10,000  Level Atlanta TRACON
Wed 03:35:00 PM 33.0096 -84.1754 164° South  Level FlightAware Approximate
Wed 03:35:32 PM 33.3608 -84.6433 165° South 364 419 10,100  Level Atlanta Center
Wed 03:36:32 PM 33.2881 -84.5458 132° Southeast 376 433 12,400 2,150 Climbing Atlanta Center
Wed 03:37:32 PM 33.2111 -84.4533 135° Southeast 387 445 14,400 2,050 Climbing Atlanta Center
Wed 03:38:32 PM 33.1322 -84.3514 133° Southeast 400 460 16,500 1,800 Climbing Atlanta Center
Wed 03:39:32 PM 33.0447 -84.2394 133° Southeast 410 472 18,000 1,750 Climbing Atlanta Center
Wed 03:40:32 PM 32.9550 -84.1600 143° Southeast 421 484 20,000 1,600 Climbing Atlanta Center
Wed 03:41:32 PM 32.8361 -84.1106 161° South 432 497 21,200 1,150 Climbing Atlanta Center
Wed 03:42:32 PM 32.7150 -84.0586 160° South 453 521 22,300 1,150 Climbing Atlanta Center
Wed 03:43:32 PM 32.5919 -84.0067 160° South 465 535 23,500 1,050 Climbing Atlanta Center
Wed 03:44:32 PM 32.4647 -83.9575 162° South 476 548 24,400 1,050 Climbing Atlanta Center
Wed 03:45:32 PM 32.3350 -83.9036 161° South 488 562 25,600 1,350 Climbing Atlanta Center
Wed 03:46:32 PM 32.1972 -83.8475 161° South 488 562 27,100 1,600 Climbing Atlanta Center
Wed 03:47:32 PM 32.0719 -83.7936 160° South 483 556 28,800 1,500 Climbing Atlanta Center
Wed 03:48:32 PM 31.9486 -83.7428 161° South 483 556 30,100 1,163 Climbing Atlanta Center
Wed 03:49:41 PM 31.8111 -83.6822 159° South 460 529 31,300 837 Climbing Jacksonville Center
Wed 03:50:41 PM 31.6861 -83.6372 163° South 460 529 31,900 700 Climbing Jacksonville Center
Wed 03:51:41 PM 31.5717 -83.5875 160° South 490 564 32,700 550 Climbing Jacksonville Center
Wed 03:52:41 PM 31.4508 -83.5428 162° South 478 550 33,000 150 Climbing Jacksonville Center
Wed 03:53:41 PM 31.3300 -83.4933 161° South 465 535 33,000  Level Jacksonville Center
Wed 03:54:41 PM 31.2069 -83.4464 162° South 465 535 33,000  Level Jacksonville Center
Wed 03:55:41 PM 31.0839 -83.3972 161° South 465 535 33,000  Level Jacksonville Center
Wed 03:56:41 PM 30.9653 -83.3506 161° South 465 535 33,000  Level Jacksonville Center
Wed 03:57:41 PM 30.8464 -83.3014 160° South 460 529 33,000  Level Jacksonville Center
Wed 03:58:41 PM 30.7169 -83.2453 160° South 455 524 33,000  Level Jacksonville Center
Wed 03:59:41 PM 30.5981 -83.1869 157° South 455 524 33,000  Level Jacksonville Center
Wed 04:00:41 PM 30.4833 -83.1289 156° South 460 529 33,000  Level Jacksonville Center
Wed 04:01:41 PM 30.3644 -83.0683 156° South 460 529 33,000  Level Jacksonville Center
Wed 04:02:41 PM 30.2497 -83.0128 157° South 453 521 33,000  Level Jacksonville Center
Wed 04:03:41 PM 30.1328 -82.9525 156° South 453 521 33,000  Level Jacksonville Center
Wed 04:04:41 PM 30.0222 -82.8972 157° South 453 521 33,000  Level Jacksonville Center
Wed 04:05:41 PM 29.9053 -82.8422 158° South 453 521 33,000  Level Jacksonville Center
Wed 04:06:41 PM 29.8031 -82.7944 158° South 453 521 33,000  Level Jacksonville Center
Wed 04:07:41 PM 29.6881 -82.7444 159° South 448 516 33,000  Level Jacksonville Center
Wed 04:08:41 PM 29.5608 -82.7444 180° South 439 505 33,000  Level Jacksonville Center
Wed 04:09:41 PM 29.4333 -82.7447 180° South 450 518 33,000  Level Jacksonville Center
Wed 04:10:41 PM 29.3039 -82.7519 183° South 462 532 33,000  Level Jacksonville Center
Wed 04:11:41 PM 29.1789 -82.7569 182° South 462 532 33,000  Level Jacksonville Center
Wed 04:12:41 PM 29.0494 -82.7619 182° South 462 532 33,000 -50 Level Jacksonville Center
Wed 04:13:41 PM 28.9219 -82.7669 182° South 462 532 32,900  Descending Jacksonville Center
Wed 04:14:41 PM 28.7928 -82.7742 183° South 462 532 33,000 50 Climbing Jacksonville Center
Wed 04:15:41 PM 28.6653 -82.7814 183° South 462 532 33,000  Level Jacksonville Center
Wed 04:16:41 PM 28.5317 -82.7864 182° South 468 539 33,000 -50 Level Jacksonville Center
Wed 04:17:41 PM 28.4044 -82.7886 181° South 468 539 32,900  Descending Jacksonville Center
Wed 04:19:31 PM 28.1653 -82.7975 182° South 469 540 33,000 35 Climbing Miami Center
Wed 04:20:31 PM 28.0214 -82.7994 181° South 475 547 33,000 -50 Level Miami Center
Wed 04:21:31 PM 27.9061 -82.7606 163° South 459 528 32,900  Descending Miami Center
Wed 04:22:31 PM 27.8094 -82.6758 142° Southeast 425 489 33,000 50 Climbing Miami Center
Wed 04:23:31 PM 27.7189 -82.5892 140° Southeast 430 495 33,000  Level Miami Center
Wed 04:24:31 PM 27.6264 -82.5025 140° Southeast 436 502 33,000  Level Miami Center
Wed 04:25:31 PM 27.5439 -82.4233 140° Southeast 436 502 33,000 -650 Level Miami Center
Wed 04:26:31 PM 27.4392 -82.3272 141° Southeast 436 502 31,700 -1,550 Descending Miami Center
Wed 04:27:31 PM 27.3486 -82.2389 139° Southeast 441 507 29,900 -1,800 Descending Miami Center
Wed 04:28:31 PM 27.2558 -82.1503 140° Southeast 441 507 28,100 -2,050 Descending Miami Center
Wed 04:29:31 PM 27.1689 -82.0717 141° Southeast 441 507 25,800 -2,000 Descending Miami Center
Wed 04:30:31 PM 27.0761 -81.9814 139° Southeast 451 519 24,100 -1,650 Descending Miami Center
Wed 04:31:31 PM 27.0158 -81.8575 119° Southeast 417 480 22,500 -1,400 Descending Miami Center
Wed 04:32:31 PM 26.9928 -81.7331 102° East 396 456 21,300 -1,250 Descending Miami Center
Wed 04:33:31 PM 26.9719 -81.6111 101° East 396 456 20,000 -1,150 Descending Miami Center
Wed 04:34:31 PM 26.9525 -81.4983 101° East 403 464 19,000 -1,300 Descending Miami Center
Wed 04:35:31 PM 26.9297 -81.3669 101° East 403 464 17,400 -2,000 Descending Miami Center
Wed 04:36:31 PM 26.9081 -81.2522 102° East 387 445 15,000 -2,350 Descending Miami Center
Wed 04:37:31 PM 26.8886 -81.1372 101° East 376 433 12,700 -2,150 Descending Miami Center
Wed 04:38:31 PM 26.8706 -81.0389 102° East 361 415 10,700 -1,350 Descending Miami Center
Wed 04:39:31 PM 26.8525 -80.9381 101° East 340 391 10,000 -350 Descending Miami Center
Wed 04:40:31 PM 26.8322 -80.8419 103° East 300 345 10,000  Level Miami Center
Wed 04:41:31 PM 26.8072 -80.7575 108° East 285 328 10,000 -450 Level Miami Center
Wed 04:42:31 PM 26.7844 -80.6728 107° East 285 328 9,100 -1,100 Descending Miami Center
Wed 04:43:31 PM 26.7594 -80.5883 108° East 290 334 7,800 -1,200 Descending Miami Center
Wed 04:44:31 PM 26.7383 -80.5156 108° East 285 328 6,700 -1,150 Descending Miami Center
Wed 04:45:31 PM 26.7133 -80.4289 108° East 274 315 5,500 -1,250 Descending Miami Center
Wed 04:46:31 PM 26.6964 -80.3608 106° East 263 303 4,200 -1,250 Descending Miami Center
Wed 04:47:31 PM 26.6881 -80.2722 96° East 253 291 3,000 -1,150 Descending Miami Center
Wed 04:48:31 PM 26.6850 -80.2164 93° East 221 254 1,900 -1,100 Descending Miami Center

Login

Don't have an account? Register now (free) for customized features, flight alerts, and more!